createdAt,value
2024-02-22T00:02:22.353Z,40.31
2024-02-22T00:05:25.552Z,40.37
2024-02-22T00:08:29.831Z,40.26
2024-02-22T00:11:33.175Z,40.36
2024-02-22T00:14:36.204Z,40.54
2024-02-22T00:17:39.012Z,40.40
2024-02-22T00:20:41.946Z,40.55
2024-02-22T00:23:47.211Z,40.28
2024-02-22T00:26:50.123Z,40.44
2024-02-22T00:29:53.104Z,40.57
2024-02-22T00:32:55.892Z,40.68
2024-02-22T00:35:58.771Z,40.59
2024-02-22T00:39:03.026Z,40.73
2024-02-22T00:42:07.197Z,40.81
2024-02-22T00:45:10.445Z,40.88
2024-02-22T00:48:13.463Z,40.66
2024-02-22T00:51:16.433Z,40.90
2024-02-22T00:54:20.777Z,40.90
2024-02-22T00:57:23.877Z,40.99
2024-02-22T01:00:26.774Z,41.07
2024-02-22T01:03:32.465Z,41.09
2024-02-22T01:06:36.024Z,41.07
2024-02-22T01:09:40.398Z,41.03
2024-02-22T01:12:43.208Z,41.09
2024-02-22T01:15:46.166Z,41.14
2024-02-22T01:18:49.210Z,41.17
2024-02-22T01:21:52.265Z,41.15
2024-02-22T01:24:56.645Z,41.30
2024-02-22T01:27:59.494Z,41.10
2024-02-22T01:31:03.324Z,41.35
2024-02-22T01:34:06.305Z,41.32
2024-02-22T01:37:09.187Z,41.15
2024-02-22T01:40:14.026Z,41.31
2024-02-22T01:43:16.839Z,41.25
2024-02-22T01:46:19.837Z,41.28
2024-02-22T01:49:23.183Z,41.26
2024-02-22T01:52:26.463Z,41.43
2024-02-22T01:55:31.062Z,41.35
2024-02-22T01:58:34.768Z,41.21
2024-02-22T02:01:38.295Z,41.38
2024-02-22T02:04:41.699Z,41.27
2024-02-22T02:07:44.788Z,41.54
2024-02-22T02:10:49.324Z,41.60
2024-02-22T02:13:52.346Z,41.33
2024-02-22T02:16:55.271Z,41.22
2024-02-22T02:19:58.676Z,41.23
2024-02-22T02:23:09.553Z,41.43
2024-02-22T02:26:14.403Z,41.20
2024-02-22T02:29:17.461Z,41.60
2024-02-22T02:32:20.506Z,41.35
2024-02-22T02:35:23.344Z,41.49
2024-02-22T02:38:26.294Z,41.57
2024-02-22T02:41:30.492Z,41.57
2024-02-22T02:44:33.514Z,41.34
2024-02-22T02:47:36.635Z,41.37
2024-02-22T02:50:39.473Z,41.57
2024-02-22T02:53:43.491Z,41.66
2024-02-22T02:56:48.196Z,41.57
2024-02-22T02:59:50.951Z,41.46
2024-02-22T03:02:53.925Z,41.41
2024-02-22T03:05:56.890Z,41.42
2024-02-22T03:09:00.013Z,41.54
2024-02-22T03:12:04.436Z,41.35
2024-02-22T03:15:08.877Z,41.26
2024-02-22T03:18:11.980Z,41.43
2024-02-22T03:21:15.050Z,41.37
2024-02-22T03:24:17.959Z,41.42
2024-02-22T03:27:22.624Z,41.58
2024-02-22T03:30:25.510Z,41.63
2024-02-22T03:33:29.463Z,41.58
2024-02-22T03:36:32.507Z,41.53
2024-02-22T03:39:36.731Z,41.96
2024-02-22T03:42:41.055Z,41.79
2024-02-22T03:45:43.953Z,41.22
2024-02-22T03:48:46.810Z,41.09
2024-02-22T03:51:49.713Z,40.71
2024-02-22T03:54:52.787Z,41.43
2024-02-22T03:57:57.021Z,40.87
2024-02-22T04:01:00.314Z,40.73
2024-02-22T04:04:03.183Z,41.15
2024-02-22T04:07:06.086Z,40.30
2024-02-22T04:10:09.220Z,40.28
2024-02-22T04:13:13.486Z,40.01
2024-02-22T04:16:16.404Z,40.08
2024-02-22T04:19:20.237Z,40.24
2024-02-22T04:22:23.251Z,40.39
2024-02-22T04:25:26.018Z,40.37
2024-02-22T04:28:30.206Z,40.11
2024-02-22T04:31:33.226Z,40.60
2024-02-22T04:34:36.626Z,40.23
2024-02-22T04:37:40.023Z,40.17
2024-02-22T04:40:43.091Z,40.61
2024-02-22T04:43:47.580Z,40.29
2024-02-22T04:46:50.475Z,40.37
2024-02-22T04:49:53.430Z,40.38
2024-02-22T04:52:57.254Z,40.34
2024-02-22T04:56:00.197Z,41.12
2024-02-22T04:59:04.496Z,40.76
2024-02-22T05:02:07.422Z,40.56
2024-02-22T05:05:10.456Z,40.65
2024-02-22T05:08:13.357Z,40.50
2024-02-22T05:11:16.412Z,40.71
2024-02-22T05:14:20.919Z,40.51
2024-02-22T05:17:23.757Z,40.77
2024-02-22T05:20:26.690Z,41.06
2024-02-22T05:23:29.505Z,41.32
2024-02-22T05:26:32.353Z,41.03
2024-02-22T05:29:36.462Z,41.18
2024-02-22T05:32:39.436Z,41.18
2024-02-22T05:35:42.699Z,41.43
2024-02-22T05:38:45.409Z,41.33
2024-02-22T05:41:48.314Z,41.31
2024-02-22T05:44:52.600Z,41.48
2024-02-22T05:47:56.292Z,41.47
2024-02-22T05:50:59.299Z,41.42
2024-02-22T05:54:02.324Z,41.29
2024-02-22T05:57:05.423Z,41.33
2024-02-22T06:00:10.675Z,41.38
2024-02-22T06:03:13.737Z,41.31
2024-02-22T06:06:17.389Z,41.42
2024-02-22T06:09:20.268Z,41.72
2024-02-22T06:12:23.204Z,41.58
2024-02-22T06:15:27.400Z,41.60
2024-02-22T06:18:30.313Z,41.60
2024-02-22T06:21:33.102Z,41.54
2024-02-22T06:24:36.125Z,41.83
2024-02-22T06:27:41.910Z,41.78
2024-02-22T06:30:46.299Z,41.69
2024-02-22T06:33:49.456Z,41.64
2024-02-22T06:36:52.452Z,41.61
2024-02-22T06:39:55.353Z,42.14
2024-02-22T06:42:59.711Z,41.53
2024-02-22T06:46:04.968Z,42.33
2024-02-22T06:49:09.625Z,41.84
2024-02-22T06:52:12.538Z,41.59
2024-02-22T06:55:16.504Z,41.69
2024-02-22T06:58:20.327Z,41.82
2024-02-22T07:01:24.667Z,41.86
2024-02-22T07:04:27.712Z,41.93
2024-02-22T07:07:30.678Z,41.84
2024-02-22T07:10:33.786Z,41.71
2024-02-22T07:13:36.713Z,42.09
2024-02-22T07:16:41.955Z,41.91
2024-02-22T07:19:45.166Z,41.81
2024-02-22T07:22:48.808Z,41.89
2024-02-22T07:25:51.959Z,41.84
2024-02-22T07:28:54.916Z,41.95
2024-02-22T07:31:59.582Z,42.04
2024-02-22T07:35:02.599Z,42.03
2024-02-22T07:38:05.821Z,41.65
2024-02-22T07:41:09.934Z,41.92
2024-02-22T07:44:13.310Z,41.98
2024-02-22T07:47:18.140Z,42.38
2024-02-22T07:50:22.073Z,42.25
2024-02-22T07:53:25.080Z,41.79
2024-02-22T07:56:28.031Z,41.86
2024-02-22T07:59:30.855Z,41.99
2024-02-22T08:02:35.043Z,41.75
2024-02-22T08:05:37.960Z,41.97
2024-02-22T08:08:41.215Z,41.61
2024-02-22T08:11:44.259Z,41.83
2024-02-22T08:14:47.939Z,41.92
2024-02-22T08:17:52.588Z,41.73
2024-02-22T08:20:55.578Z,41.96
2024-02-22T08:23:58.483Z,41.94
2024-02-22T08:27:01.277Z,42.05
2024-02-22T08:30:04.089Z,42.02
2024-02-22T08:33:08.678Z,41.99
2024-02-22T08:36:11.641Z,42.01
2024-02-22T08:39:15.393Z,42.14
2024-02-22T08:42:18.194Z,41.91
2024-02-22T08:45:20.940Z,41.70
2024-02-22T08:48:27.080Z,41.90
2024-02-22T08:51:31.468Z,42.14
2024-02-22T08:54:37.554Z,41.82
2024-02-22T08:57:51.104Z,42.03
2024-02-22T09:00:57.201Z,41.82
2024-02-22T09:04:01.581Z,41.84
2024-02-22T09:07:04.730Z,41.90
2024-02-22T09:10:08.736Z,41.88
2024-02-22T09:13:11.692Z,41.96
2024-02-22T09:16:15.102Z,41.71
2024-02-22T09:19:19.435Z,41.93
2024-02-22T09:22:22.397Z,41.70
2024-02-22T09:25:25.556Z,41.72
2024-02-22T09:28:28.496Z,41.65
2024-02-22T09:31:31.371Z,42.03
2024-02-22T09:34:35.762Z,41.80
2024-02-22T09:37:38.653Z,41.98
2024-02-22T09:40:41.633Z,41.78
2024-02-22T09:43:44.754Z,41.83
2024-02-22T09:46:50.356Z,41.72
2024-02-22T09:49:54.836Z,41.25
2024-02-22T09:52:58.399Z,41.13
2024-02-22T09:56:01.432Z,40.98
2024-02-22T09:59:04.448Z,40.99
2024-02-22T10:02:08.247Z,40.81
2024-02-22T10:05:13.582Z,40.83
2024-02-22T10:08:17.155Z,40.79
2024-02-22T10:11:21.110Z,40.64
2024-02-22T10:14:24.292Z,40.46
2024-02-22T10:17:28.525Z,40.73
2024-02-22T10:20:34.841Z,40.42
2024-02-22T10:23:38.900Z,40.38
2024-02-22T10:26:42.394Z,40.18
2024-02-22T10:29:45.321Z,40.22
2024-02-22T10:32:49.059Z,40.15
2024-02-22T10:35:54.139Z,40.59
2024-02-22T10:38:57.424Z,40.29
2024-02-22T10:42:01.262Z,40.34
2024-02-22T10:45:04.230Z,40.29
2024-02-22T10:48:09.151Z,40.14
2024-02-22T10:51:13.672Z,40.05
2024-02-22T10:54:16.530Z,40.07
2024-02-22T10:57:20.419Z,40.08
2024-02-22T11:00:23.922Z,40.19
2024-02-22T11:03:27.866Z,40.14
2024-02-22T11:06:39.342Z,40.11
2024-02-22T11:09:42.771Z,40.14
2024-02-22T11:12:46.149Z,39.94
2024-02-22T11:15:48.951Z,40.09
2024-02-22T11:18:51.946Z,40.44
2024-02-22T11:21:56.340Z,40.49
2024-02-22T11:24:59.191Z,40.77
2024-02-22T11:28:03.072Z,40.70
2024-02-22T11:31:12.442Z,40.60
2024-02-22T11:34:18.566Z,40.89
2024-02-22T11:37:23.094Z,40.84
2024-02-22T11:40:26.672Z,40.96
2024-02-22T11:43:29.627Z,40.93
2024-02-22T11:46:34.957Z,41.14
2024-02-22T11:49:37.911Z,41.05
2024-02-22T11:52:42.240Z,41.19
2024-02-22T11:55:45.152Z,41.22
2024-02-22T11:58:47.967Z,41.48
2024-02-22T12:01:51.921Z,41.23
2024-02-22T12:04:56.016Z,41.43
2024-02-22T12:08:00.374Z,41.34
2024-02-22T12:11:05.683Z,41.38
2024-02-22T12:14:08.756Z,41.40
2024-02-22T12:17:12.247Z,41.44
2024-02-22T12:20:16.829Z,41.49
2024-02-22T12:23:21.222Z,41.45
2024-02-22T12:26:24.133Z,41.53
2024-02-22T12:29:28.277Z,41.35
2024-02-22T12:32:31.360Z,41.48
2024-02-22T12:35:34.390Z,41.44
2024-02-22T12:38:38.652Z,41.34
2024-02-22T12:41:41.729Z,41.45
2024-02-22T12:44:44.568Z,41.49
2024-02-22T12:47:47.552Z,41.53
2024-02-22T12:50:50.423Z,41.25
2024-02-22T12:53:55.235Z,41.53
2024-02-22T12:56:58.107Z,41.40
2024-02-22T13:00:00.908Z,41.46
2024-02-22T13:03:04.170Z,41.63
2024-02-22T13:06:07.166Z,41.49
2024-02-22T13:09:12.567Z,41.24
2024-02-22T13:12:15.797Z,41.11
2024-02-22T13:15:18.852Z,41.04
2024-02-22T13:18:21.734Z,40.72
2024-02-22T13:21:25.080Z,40.62
2024-02-22T13:24:29.371Z,40.22
2024-02-22T13:27:34.478Z,40.51
2024-02-22T13:30:37.535Z,40.32
2024-02-22T13:33:46.689Z,40.12
2024-02-22T13:36:50.092Z,40.18
2024-02-22T13:40:00.796Z,40.12
2024-02-22T13:43:10.129Z,39.99
2024-02-22T13:46:12.971Z,39.98
2024-02-22T13:49:18.995Z,39.94
2024-02-22T13:52:22.248Z,39.88
2024-02-22T13:55:26.540Z,39.81
2024-02-22T14:01:45.662Z,40.02
2024-02-22T14:04:48.725Z,39.67
2024-02-22T14:07:55.940Z,40.21
2024-02-22T14:10:58.822Z,40.48
2024-02-22T14:14:02.114Z,40.65
2024-02-22T14:17:07.615Z,40.27
2024-02-22T14:20:12.434Z,40.22
2024-02-22T14:23:15.636Z,40.41
2024-02-22T14:26:18.653Z,40.22
2024-02-22T14:29:22.201Z,40.44
2024-02-22T14:32:28.101Z,40.08
2024-02-22T14:35:31.440Z,40.16
2024-02-22T14:38:34.846Z,40.21
2024-02-22T14:41:37.810Z,40.04
2024-02-22T14:44:43.562Z,40.46
2024-02-22T14:47:48.219Z,39.97
2024-02-22T14:50:51.224Z,40.30
2024-02-22T14:53:54.080Z,40.33
2024-02-22T14:56:56.862Z,40.01
2024-02-22T14:59:59.652Z,40.65
2024-02-22T15:03:03.822Z,40.49
2024-02-22T15:06:10.671Z,40.02
2024-02-22T15:09:17.898Z,40.41
2024-02-22T15:12:20.809Z,40.17
2024-02-22T15:15:23.768Z,40.30
2024-02-22T15:18:28.103Z,40.70
2024-02-22T15:21:31.135Z,40.21
2024-02-22T15:24:34.973Z,40.38
2024-02-22T15:27:41.029Z,40.51
2024-02-22T15:30:43.899Z,40.46
2024-02-22T15:33:54.556Z,40.64
2024-02-22T15:37:02.089Z,40.52
2024-02-22T15:40:08.308Z,40.65
2024-02-22T15:43:13.711Z,40.73
2024-02-22T15:46:17.387Z,40.89
2024-02-22T15:49:23.434Z,40.83
2024-02-22T15:52:26.587Z,41.13
2024-02-22T15:55:29.510Z,41.17
2024-02-22T15:58:32.688Z,40.98
2024-02-22T16:01:35.699Z,41.12
2024-02-22T16:04:40.365Z,41.14
2024-02-22T16:07:43.544Z,40.90
2024-02-22T16:10:46.449Z,41.18
2024-02-22T16:13:49.622Z,41.06
2024-02-22T16:16:56.632Z,41.19
2024-02-22T16:20:02.639Z,41.24
2024-02-22T16:23:09.888Z,41.29
2024-02-22T16:26:14.946Z,41.45
2024-02-22T16:29:18.057Z,41.27
2024-02-22T16:32:21.285Z,41.30
2024-02-22T16:35:25.480Z,41.33
2024-02-22T16:38:28.363Z,41.34
2024-02-22T16:41:31.934Z,41.48
2024-02-22T16:44:39.879Z,41.65
2024-02-22T16:47:45.978Z,41.68
2024-02-22T16:50:50.732Z,41.78
2024-02-22T16:53:53.549Z,41.66
2024-02-22T16:56:57.445Z,41.79
2024-02-22T17:00:00.365Z,41.79
2024-02-22T17:03:03.357Z,41.77
2024-02-22T17:06:07.912Z,41.67
2024-02-22T17:09:10.939Z,41.85
2024-02-22T17:12:13.972Z,41.85
2024-02-22T17:15:17.205Z,41.64
2024-02-22T17:18:23.135Z,41.79
2024-02-22T17:21:27.342Z,41.80
2024-02-22T17:24:32.114Z,41.76
2024-02-22T17:27:35.174Z,41.73
2024-02-22T17:30:38.155Z,41.92
2024-02-22T17:33:40.915Z,41.89
2024-02-22T17:36:45.236Z,41.75
2024-02-22T17:39:48.597Z,42.10
2024-02-22T17:42:51.529Z,41.93
2024-02-22T17:45:54.531Z,41.98
2024-02-22T17:48:57.457Z,41.97
2024-02-22T17:52:02.354Z,41.96
2024-02-22T17:55:09.739Z,41.86
2024-02-22T17:58:12.912Z,41.97
2024-02-22T18:01:16.052Z,41.96
2024-02-22T18:07:26.448Z,41.96
2024-02-22T18:10:29.356Z,41.08
2024-02-22T18:13:32.420Z,40.95
2024-02-22T18:16:36.026Z,41.23
2024-02-22T18:19:39.117Z,41.00
2024-02-22T18:22:43.484Z,41.17
2024-02-22T18:25:46.599Z,40.88
2024-02-22T18:28:49.588Z,41.06
2024-02-22T18:31:52.610Z,40.85
2024-02-22T18:34:55.527Z,40.44
2024-02-22T18:37:59.975Z,40.90
2024-02-22T18:41:03.752Z,41.01
2024-02-22T18:44:06.819Z,41.05
2024-02-22T18:47:11.237Z,40.89
2024-02-22T18:50:14.273Z,40.66
2024-02-22T18:53:18.630Z,41.22
2024-02-22T18:56:21.741Z,40.84
2024-02-22T18:59:24.864Z,40.63
2024-02-22T19:02:28.381Z,40.48
2024-02-22T19:05:31.210Z,40.70
2024-02-22T19:08:38.689Z,40.42
2024-02-22T19:11:41.737Z,40.54
2024-02-22T19:14:44.768Z,40.73
2024-02-22T19:17:47.600Z,40.76
2024-02-22T19:20:50.477Z,40.63
2024-02-22T19:23:55.121Z,40.56
2024-02-22T19:27:02.970Z,40.68
2024-02-22T19:30:08.124Z,40.67
2024-02-22T19:33:11.427Z,41.13
2024-02-22T19:36:14.348Z,40.92
2024-02-22T19:39:21.966Z,41.20
2024-02-22T19:42:25.288Z,40.97
2024-02-22T19:45:28.963Z,41.04
2024-02-22T19:48:32.038Z,40.89
2024-02-22T19:51:35.308Z,40.79
2024-02-22T19:54:39.897Z,40.89
2024-02-22T19:57:43.612Z,40.94
2024-02-22T20:00:49.836Z,41.91
2024-02-22T20:03:52.975Z,41.00
2024-02-22T20:06:56.034Z,40.92
2024-02-22T20:10:00.338Z,41.20
2024-02-22T20:13:03.695Z,41.04
2024-02-22T20:16:07.419Z,41.48
2024-02-22T20:19:10.437Z,41.14
2024-02-22T20:22:14.240Z,40.78
2024-02-22T20:25:18.496Z,41.21
2024-02-22T20:28:21.368Z,40.66
2024-02-22T20:31:24.225Z,40.66
2024-02-22T20:34:27.183Z,40.71
2024-02-22T20:37:30.088Z,40.64
2024-02-22T20:40:34.538Z,40.49
2024-02-22T20:43:37.492Z,40.87
2024-02-22T20:46:41.452Z,40.76
2024-02-22T20:49:44.447Z,40.45
2024-02-22T20:52:48.334Z,40.52
2024-02-22T20:55:55.188Z,40.47
2024-02-22T20:58:59.746Z,40.35
2024-02-22T21:02:02.781Z,40.29
2024-02-22T21:05:07.588Z,40.37
2024-02-22T21:08:10.593Z,40.02
2024-02-22T21:11:15.930Z,40.21
2024-02-22T21:14:18.938Z,40.25
2024-02-22T21:17:21.938Z,40.32
2024-02-22T21:20:24.833Z,40.64
2024-02-22T21:23:27.899Z,40.55
2024-02-22T21:26:32.176Z,40.25
2024-02-22T21:29:35.213Z,39.63
2024-02-22T21:32:38.242Z,39.83
2024-02-22T21:35:41.157Z,39.88
2024-02-22T21:38:44.303Z,40.03
2024-02-22T21:41:48.651Z,40.44
2024-02-22T21:44:51.563Z,40.08
2024-02-22T21:47:54.604Z,39.89
2024-02-22T21:50:57.468Z,40.20
2024-02-22T21:54:00.393Z,39.70
2024-02-22T21:57:04.812Z,39.90
2024-02-22T22:00:08.665Z,40.26
2024-02-22T22:03:12.194Z,40.04
2024-02-22T22:06:16.718Z,40.00
2024-02-22T22:09:20.714Z,39.85
2024-02-22T22:12:25.368Z,39.78
2024-02-22T22:15:28.561Z,40.03
2024-02-22T22:18:32.258Z,39.85
2024-02-22T22:21:35.287Z,39.89
2024-02-22T22:24:41.450Z,39.93
2024-02-22T22:27:46.757Z,39.78
2024-02-22T22:30:49.599Z,39.94
2024-02-22T22:33:52.489Z,40.12
2024-02-22T22:36:55.347Z,39.48
2024-02-22T22:39:59.347Z,39.89
2024-02-22T22:43:03.809Z,39.92
2024-02-22T22:46:06.665Z,39.42
2024-02-22T22:49:15.820Z,39.85
2024-02-22T22:52:18.855Z,39.94
2024-02-22T22:55:21.775Z,40.08
2024-02-22T22:58:26.777Z,39.80
2024-02-22T23:01:29.693Z,39.94
2024-02-22T23:04:34.925Z,39.88
2024-02-22T23:07:38.138Z,39.85
2024-02-22T23:10:41.336Z,39.72
2024-02-22T23:13:46.206Z,40.25
2024-02-22T23:16:49.827Z,39.98
2024-02-22T23:19:53.194Z,40.16
2024-02-22T23:22:56.175Z,39.74
2024-02-22T23:25:59.044Z,40.29
2024-02-22T23:29:03.282Z,40.37
2024-02-22T23:32:06.621Z,40.30
2024-02-22T23:35:14.099Z,40.31
2024-02-22T23:38:17.240Z,39.97
2024-02-22T23:41:25.580Z,40.15
2024-02-22T23:44:34.171Z,40.22
2024-02-22T23:47:37.281Z,40.19
2024-02-22T23:50:40.159Z,40.05
2024-02-22T23:53:42.975Z,40.15
2024-02-22T23:56:46.468Z,40.08
2024-02-22T23:59:50.754Z,40.15
